sensor_id;sensor_type;location;lat;lon;timestamp;pressure;altitude;pressure_sealevel;temperature;humidity
72262;BME280;60173;52.112;8.648;2022-11-15T00:02:06;100085.28;;;8.35;77.60
72262;BME280;60173;52.112;8.648;2022-11-15T00:04:32;100091.66;;;8.26;77.73
72262;BME280;60173;52.112;8.648;2022-11-15T00:06:59;100098.09;;;8.30;77.82
72262;BME280;60173;52.112;8.648;2022-11-15T00:09:25;100091.09;;;8.29;78.18
72262;BME280;60173;52.112;8.648;2022-11-15T00:11:51;100087.25;;;8.30;77.98
72262;BME280;60173;52.112;8.648;2022-11-15T00:14:18;100089.09;;;8.34;78.18
72262;BME280;60173;52.112;8.648;2022-11-15T00:16:44;100093.13;;;8.37;77.90
72262;BME280;60173;52.112;8.648;2022-11-15T00:19:11;100090.34;;;8.23;77.92
72262;BME280;60173;52.112;8.648;2022-11-15T00:21:37;100086.25;;;8.26;78.27
72262;BME280;60173;52.112;8.648;2022-11-15T00:24:03;100083.91;;;8.38;78.16
72262;BME280;60173;52.112;8.648;2022-11-15T00:26:30;100078.47;;;8.43;77.85
72262;BME280;60173;52.112;8.648;2022-11-15T00:28:56;100074.66;;;8.44;77.97
72262;BME280;60173;52.112;8.648;2022-11-15T00:31:22;100080.84;;;8.26;78.76
72262;BME280;60173;52.112;8.648;2022-11-15T00:33:49;100079.41;;;8.33;78.91
72262;BME280;60173;52.112;8.648;2022-11-15T00:36:15;100073.84;;;8.44;78.60
72262;BME280;60173;52.112;8.648;2022-11-15T00:38:41;100069.47;;;8.48;78.25
72262;BME280;60173;52.112;8.648;2022-11-15T00:41:08;100075.97;;;8.47;78.21
72262;BME280;60173;52.112;8.648;2022-11-15T00:43:35;100071.28;;;8.52;78.17
72262;BME280;60173;52.112;8.648;2022-11-15T00:46:02;100074.38;;;8.46;78.44
72262;BME280;60173;52.112;8.648;2022-11-15T00:48:29;100068.97;;;8.46;78.88
72262;BME280;60173;52.112;8.648;2022-11-15T00:50:55;100067.41;;;8.58;79.04
72262;BME280;60173;52.112;8.648;2022-11-15T00:53:21;100067.19;;;8.55;79.24
72262;BME280;60173;52.112;8.648;2022-11-15T00:55:48;100055.06;;;8.52;79.94
72262;BME280;60173;52.112;8.648;2022-11-15T00:58:14;100057.22;;;8.50;80.26
72262;BME280;60173;52.112;8.648;2022-11-15T01:00:40;100054.00;;;8.67;79.47
72262;BME280;60173;52.112;8.648;2022-11-15T01:03:07;100048.97;;;8.79;78.88
72262;BME280;60173;52.112;8.648;2022-11-15T01:05:33;100046.38;;;9.02;78.30
72262;BME280;60173;52.112;8.648;2022-11-15T01:07:59;100037.13;;;8.89;78.43
72262;BME280;60173;52.112;8.648;2022-11-15T01:10:26;100037.81;;;8.81;79.36
72262;BME280;60173;52.112;8.648;2022-11-15T01:12:52;100038.41;;;8.78;80.05
72262;BME280;60173;52.112;8.648;2022-11-15T01:15:18;100030.56;;;8.76;80.64
72262;BME280;60173;52.112;8.648;2022-11-15T01:17:45;100027.56;;;8.78;80.88
72262;BME280;60173;52.112;8.648;2022-11-15T01:20:11;100034.22;;;8.86;81.28
72262;BME280;60173;52.112;8.648;2022-11-15T01:22:38;100033.31;;;8.90;81.34
72262;BME280;60173;52.112;8.648;2022-11-15T01:25:04;100026.72;;;8.96;81.15
72262;BME280;60173;52.112;8.648;2022-11-15T01:27:30;100031.66;;;8.94;81.50
72262;BME280;60173;52.112;8.648;2022-11-15T01:29:57;100019.03;;;9.03;81.54
72262;BME280;60173;52.112;8.648;2022-11-15T01:32:23;100019.41;;;8.97;81.55
72262;BME280;60173;52.112;8.648;2022-11-15T01:34:49;100017.38;;;9.02;81.73
72262;BME280;60173;52.112;8.648;2022-11-15T01:37:16;100022.25;;;9.05;82.01
72262;BME280;60173;52.112;8.648;2022-11-15T01:39:42;100012.56;;;8.99;82.20
72262;BME280;60173;52.112;8.648;2022-11-15T01:42:12;100019.03;;;9.03;82.68
72262;BME280;60173;52.112;8.648;2022-11-15T01:44:41;100009.19;;;9.08;82.83
72262;BME280;60173;52.112;8.648;2022-11-15T01:47:13;100012.41;;;9.10;82.91
72262;BME280;60173;52.112;8.648;2022-11-15T01:49:54;99998.97;;;9.18;82.91
72262;BME280;60173;52.112;8.648;2022-11-15T01:52:24;99996.53;;;9.17;82.87
72262;BME280;60173;52.112;8.648;2022-11-15T01:54:56;99991.63;;;9.19;83.41
72262;BME280;60173;52.112;8.648;2022-11-15T01:57:25;99986.84;;;9.30;83.24
72262;BME280;60173;52.112;8.648;2022-11-15T01:59:51;99995.75;;;9.30;83.04
72262;BME280;60173;52.112;8.648;2022-11-15T02:02:17;99989.22;;;9.31;83.29
72262;BME280;60173;52.112;8.648;2022-11-15T02:04:47;99984.31;;;9.33;83.55
72262;BME280;60173;52.112;8.648;2022-11-15T02:07:19;99981.63;;;9.33;83.18
72262;BME280;60173;52.112;8.648;2022-11-15T02:09:46;99972.28;;;9.39;83.27
72262;BME280;60173;52.112;8.648;2022-11-15T02:12:15;99978.72;;;9.43;83.04
72262;BME280;60173;52.112;8.648;2022-11-15T02:14:47;99978.91;;;9.33;83.58
72262;BME280;60173;52.112;8.648;2022-11-15T02:23:41;99985.53;;;9.41;83.61
72262;BME280;60173;52.112;8.648;2022-11-15T02:28:45;99982.31;;;9.53;83.56
72262;BME280;60173;52.112;8.648;2022-11-15T02:31:28;99982.09;;;9.63;83.63
72262;BME280;60173;52.112;8.648;2022-11-15T02:34:11;99978.91;;;9.61;83.54
72262;BME280;60173;52.112;8.648;2022-11-15T02:37:16;99982.13;;;9.49;84.27
72262;BME280;60173;52.112;8.648;2022-11-15T02:39:58;99979.91;;;9.51;84.58
72262;BME280;60173;52.112;8.648;2022-11-15T02:42:29;99980.59;;;9.57;84.71
72262;BME280;60173;52.112;8.648;2022-11-15T02:45:03;99981.53;;;9.52;84.74
72262;BME280;60173;52.112;8.648;2022-11-15T02:47:34;99984.69;;;9.68;84.36
72262;BME280;60173;52.112;8.648;2022-11-15T02:50:08;99983.47;;;9.74;84.12
72262;BME280;60173;52.112;8.648;2022-11-15T02:52:35;99975.66;;;9.72;84.16
72262;BME280;60173;52.112;8.648;2022-11-15T02:55:02;99976.28;;;9.56;84.95
72262;BME280;60173;52.112;8.648;2022-11-15T03:00:03;99977.41;;;9.55;85.65
72262;BME280;60173;52.112;8.648;2022-11-15T03:03:01;99971.75;;;9.51;85.85
72262;BME280;60173;52.112;8.648;2022-11-15T03:08:37;99969.84;;;9.51;86.12
72262;BME280;60173;52.112;8.648;2022-11-15T03:11:12;99963.63;;;9.65;85.82
72262;BME280;60173;52.112;8.648;2022-11-15T03:13:59;99964.59;;;9.69;85.75
72262;BME280;60173;52.112;8.648;2022-11-15T03:16:33;99969.94;;;9.60;86.36
72262;BME280;60173;52.112;8.648;2022-11-15T03:22:03;99967.75;;;9.48;87.01
72262;BME280;60173;52.112;8.648;2022-11-15T03:24:36;99962.22;;;9.54;87.13
72262;BME280;60173;52.112;8.648;2022-11-15T03:27:06;99964.72;;;9.64;87.13
72262;BME280;60173;52.112;8.648;2022-11-15T03:29:38;99960.72;;;9.61;87.11
72262;BME280;60173;52.112;8.648;2022-11-15T03:32:12;99960.44;;;9.49;87.69
72262;BME280;60173;52.112;8.648;2022-11-15T03:34:58;99965.94;;;9.58;87.85
72262;BME280;60173;52.112;8.648;2022-11-15T03:37:35;99970.25;;;9.59;87.45
72262;BME280;60173;52.112;8.648;2022-11-15T03:40:03;99966.44;;;9.60;87.58
72262;BME280;60173;52.112;8.648;2022-11-15T03:42:37;99973.06;;;9.54;87.62
72262;BME280;60173;52.112;8.648;2022-11-15T03:45:14;99968.84;;;9.47;88.10
72262;BME280;60173;52.112;8.648;2022-11-15T03:47:46;99967.03;;;9.57;88.07
72262;BME280;60173;52.112;8.648;2022-11-15T03:50:17;99972.88;;;9.64;87.92
72262;BME280;60173;52.112;8.648;2022-11-15T03:52:45;99961.81;;;9.60;88.07
72262;BME280;60173;52.112;8.648;2022-11-15T03:55:16;99967.81;;;9.71;87.87
72262;BME280;60173;52.112;8.648;2022-11-15T03:57:43;99972.44;;;9.70;88.00
72262;BME280;60173;52.112;8.648;2022-11-15T04:00:10;99977.88;;;9.70;87.95
72262;BME280;60173;52.112;8.648;2022-11-15T04:02:37;99970.94;;;9.78;87.90
72262;BME280;60173;52.112;8.648;2022-11-15T04:05:03;99975.75;;;9.81;87.76
72262;BME280;60173;52.112;8.648;2022-11-15T04:07:30;99971.75;;;9.79;87.87
72262;BME280;60173;52.112;8.648;2022-11-15T04:09:57;99973.34;;;9.80;88.01
72262;BME280;60173;52.112;8.648;2022-11-15T04:12:23;99967.00;;;9.84;87.81
72262;BME280;60173;52.112;8.648;2022-11-15T04:14:49;99973.59;;;9.92;87.61
72262;BME280;60173;52.112;8.648;2022-11-15T04:17:16;99970.78;;;9.97;86.93
72262;BME280;60173;52.112;8.648;2022-11-15T04:19:42;99968.56;;;9.99;87.18
72262;BME280;60173;52.112;8.648;2022-11-15T04:22:08;99966.97;;;9.98;86.76
72262;BME280;60173;52.112;8.648;2022-11-15T04:24:35;99967.56;;;9.95;87.35
72262;BME280;60173;52.112;8.648;2022-11-15T04:27:01;99968.94;;;10.06;86.62
72262;BME280;60173;52.112;8.648;2022-11-15T04:29:29;99965.84;;;9.99;87.00
72262;BME280;60173;52.112;8.648;2022-11-15T04:31:55;99969.34;;;10.13;86.57
72262;BME280;60173;52.112;8.648;2022-11-15T04:34:22;99961.69;;;10.15;86.44
72262;BME280;60173;52.112;8.648;2022-11-15T04:36:48;99967.13;;;10.15;86.06
72262;BME280;60173;52.112;8.648;2022-11-15T04:39:14;99971.38;;;10.08;86.32
72262;BME280;60173;52.112;8.648;2022-11-15T04:41:41;99967.16;;;10.02;86.92
72262;BME280;60173;52.112;8.648;2022-11-15T04:44:07;99965.06;;;9.99;87.14
72262;BME280;60173;52.112;8.648;2022-11-15T04:46:33;99961.94;;;9.91;87.69
72262;BME280;60173;52.112;8.648;2022-11-15T04:49:00;99965.78;;;9.90;87.96
72262;BME280;60173;52.112;8.648;2022-11-15T04:51:26;99960.97;;;9.87;87.97
72262;BME280;60173;52.112;8.648;2022-11-15T04:53:52;99964.06;;;9.94;87.93
72262;BME280;60173;52.112;8.648;2022-11-15T04:56:19;99964.94;;;10.04;87.39
72262;BME280;60173;52.112;8.648;2022-11-15T04:58:48;99961.41;;;10.03;87.30
72262;BME280;60173;52.112;8.648;2022-11-15T05:01:15;99963.50;;;10.06;87.39
72262;BME280;60173;52.112;8.648;2022-11-15T05:03:42;99964.63;;;10.05;87.43
72262;BME280;60173;52.112;8.648;2022-11-15T05:06:08;99964.34;;;10.07;87.27
72262;BME280;60173;52.112;8.648;2022-11-15T05:08:35;99957.91;;;10.03;87.58
72262;BME280;60173;52.112;8.648;2022-11-15T05:11:01;99962.22;;;10.04;87.32
72262;BME280;60173;52.112;8.648;2022-11-15T05:13:27;99966.03;;;10.03;87.46
72262;BME280;60173;52.112;8.648;2022-11-15T05:15:54;99964.34;;;10.07;87.52
72262;BME280;60173;52.112;8.648;2022-11-15T05:18:20;99955.19;;;10.03;87.30
72262;BME280;60173;52.112;8.648;2022-11-15T05:20:49;99968.03;;;10.11;87.46
72262;BME280;60173;52.112;8.648;2022-11-15T05:23:15;99962.78;;;10.14;87.22
72262;BME280;60173;52.112;8.648;2022-11-15T05:25:41;99970.13;;;10.14;86.97
72262;BME280;60173;52.112;8.648;2022-11-15T05:28:08;99975.56;;;10.14;86.99
72262;BME280;60173;52.112;8.648;2022-11-15T05:30:34;99977.16;;;10.15;86.82
72262;BME280;60173;52.112;8.648;2022-11-15T05:33:01;99965.56;;;10.23;86.45
72262;BME280;60173;52.112;8.648;2022-11-15T05:35:42;99971.63;;;10.20;86.47
72262;BME280;60173;52.112;8.648;2022-11-15T05:38:11;99966.88;;;10.26;86.46
72262;BME280;60173;52.112;8.648;2022-11-15T05:40:37;99966.00;;;10.30;86.06
72262;BME280;60173;52.112;8.648;2022-11-15T05:43:04;99969.31;;;10.27;86.01
72262;BME280;60173;52.112;8.648;2022-11-15T05:45:32;99966.47;;;10.32;85.76
72262;BME280;60173;52.112;8.648;2022-11-15T05:48:00;99969.91;;;10.24;85.91
72262;BME280;60173;52.112;8.648;2022-11-15T05:50:30;99959.06;;;10.24;85.84
72262;BME280;60173;52.112;8.648;2022-11-15T05:52:57;99964.94;;;10.40;85.23
72262;BME280;60173;52.112;8.648;2022-11-15T05:55:30;99962.41;;;10.44;84.69
72262;BME280;60173;52.112;8.648;2022-11-15T05:57:57;99960.41;;;10.35;84.89
72262;BME280;60173;52.112;8.648;2022-11-15T06:00:24;99956.63;;;10.36;85.12
72262;BME280;60173;52.112;8.648;2022-11-15T06:02:51;99967.09;;;10.29;85.42
72262;BME280;60173;52.112;8.648;2022-11-15T06:05:17;99957.06;;;10.16;85.75
72262;BME280;60173;52.112;8.648;2022-11-15T06:07:44;99961.13;;;10.05;86.17
72262;BME280;60173;52.112;8.648;2022-11-15T06:10:10;99956.28;;;10.15;86.17
72262;BME280;60173;52.112;8.648;2022-11-15T06:12:36;99958.91;;;10.07;86.35
72262;BME280;60173;52.112;8.648;2022-11-15T06:15:03;99959.75;;;9.93;86.94
72262;BME280;60173;52.112;8.648;2022-11-15T06:17:29;99955.31;;;9.98;86.85
72262;BME280;60173;52.112;8.648;2022-11-15T06:19:56;99953.97;;;10.09;86.74
72262;BME280;60173;52.112;8.648;2022-11-15T06:22:22;99953.09;;;10.00;86.79
72262;BME280;60173;52.112;8.648;2022-11-15T06:24:48;99955.09;;;10.08;86.81
72262;BME280;60173;52.112;8.648;2022-11-15T06:27:15;99956.31;;;10.02;86.83
72262;BME280;60173;52.112;8.648;2022-11-15T06:29:41;99957.47;;;10.09;86.84
72262;BME280;60173;52.112;8.648;2022-11-15T06:32:08;99959.91;;;10.11;86.81
72262;BME280;60173;52.112;8.648;2022-11-15T06:34:34;99962.25;;;10.26;86.23
72262;BME280;60173;52.112;8.648;2022-11-15T06:37:00;99956.34;;;10.24;85.67
72262;BME280;60173;52.112;8.648;2022-11-15T06:39:27;99962.03;;;10.36;85.75
72262;BME280;60173;52.112;8.648;2022-11-15T06:41:53;99953.78;;;10.42;85.02
72262;BME280;60173;52.112;8.648;2022-11-15T06:44:20;99962.78;;;10.51;84.85
72262;BME280;60173;52.112;8.648;2022-11-15T06:46:46;99968.44;;;10.40;85.21
72262;BME280;60173;52.112;8.648;2022-11-15T06:49:12;99966.34;;;10.37;85.53
72262;BME280;60173;52.112;8.648;2022-11-15T06:51:39;99964.25;;;10.34;85.46
72262;BME280;60173;52.112;8.648;2022-11-15T06:54:05;99957.69;;;10.35;85.39
72262;BME280;60173;52.112;8.648;2022-11-15T06:56:33;99961.66;;;10.29;85.85
72262;BME280;60173;52.112;8.648;2022-11-15T06:58:59;99963.81;;;10.41;85.66
72262;BME280;60173;52.112;8.648;2022-11-15T07:01:26;99961.88;;;10.33;85.59
72262;BME280;60173;52.112;8.648;2022-11-15T07:03:52;99963.13;;;10.35;85.77
72262;BME280;60173;52.112;8.648;2022-11-15T07:06:18;99964.88;;;10.31;85.93
72262;BME280;60173;52.112;8.648;2022-11-15T07:08:45;99964.75;;;10.36;86.10
72262;BME280;60173;52.112;8.648;2022-11-15T07:11:11;99972.00;;;10.50;85.76
72262;BME280;60173;52.112;8.648;2022-11-15T07:13:37;99977.31;;;10.55;85.23
72262;BME280;60173;52.112;8.648;2022-11-15T07:16:05;99973.56;;;10.65;85.21
72262;BME280;60173;52.112;8.648;2022-11-15T07:18:36;99975.53;;;10.73;85.02
72262;BME280;60173;52.112;8.648;2022-11-15T07:21:05;99970.28;;;10.76;84.71
72262;BME280;60173;52.112;8.648;2022-11-15T07:23:32;99980.03;;;10.77;84.14
72262;BME280;60173;52.112;8.648;2022-11-15T07:25:59;99973.91;;;10.94;83.98
72262;BME280;60173;52.112;8.648;2022-11-15T07:28:26;99976.53;;;11.08;83.49
72262;BME280;60173;52.112;8.648;2022-11-15T07:30:53;99974.91;;;11.07;83.40
72262;BME280;60173;52.112;8.648;2022-11-15T07:33:19;99975.75;;;11.16;82.98
72262;BME280;60173;52.112;8.648;2022-11-15T07:35:46;99974.97;;;11.24;83.09
72262;BME280;60173;52.112;8.648;2022-11-15T07:38:12;99989.91;;;11.36;81.75
72262;BME280;60173;52.112;8.648;2022-11-15T07:40:39;99982.56;;;11.45;81.44
72262;BME280;60173;52.112;8.648;2022-11-15T07:43:07;99989.91;;;11.36;81.35
72262;BME280;60173;52.112;8.648;2022-11-15T07:45:33;99982.69;;;11.40;81.39
72262;BME280;60173;52.112;8.648;2022-11-15T07:48:00;99990.72;;;11.45;80.96
72262;BME280;60173;52.112;8.648;2022-11-15T07:50:27;99987.53;;;11.43;81.37
72262;BME280;60173;52.112;8.648;2022-11-15T07:52:58;99987.22;;;11.44;81.36
72262;BME280;60173;52.112;8.648;2022-11-15T07:55:26;99992.19;;;11.51;80.87
72262;BME280;60173;52.112;8.648;2022-11-15T07:58:06;99998.91;;;11.53;80.83
72262;BME280;60173;52.112;8.648;2022-11-15T08:00:33;99985.34;;;11.62;79.88
72262;BME280;60173;52.112;8.648;2022-11-15T08:03:11;99997.22;;;11.75;79.37
72262;BME280;60173;52.112;8.648;2022-11-15T08:05:38;99993.97;;;11.64;79.91
72262;BME280;60173;52.112;8.648;2022-11-15T08:08:05;99988.81;;;11.54;80.28
72262;BME280;60173;52.112;8.648;2022-11-15T08:10:32;99995.44;;;11.70;79.68
72262;BME280;60173;52.112;8.648;2022-11-15T08:13:10;99982.63;;;11.71;79.45
72262;BME280;60173;52.112;8.648;2022-11-15T08:15:37;99982.97;;;11.78;79.64
72262;BME280;60173;52.112;8.648;2022-11-15T08:18:06;99984.13;;;11.86;79.13
72262;BME280;60173;52.112;8.648;2022-11-15T08:20:33;99985.28;;;12.02;78.59
72262;BME280;60173;52.112;8.648;2022-11-15T08:23:00;99974.88;;;12.30;77.49
72262;BME280;60173;52.112;8.648;2022-11-15T08:25:29;99978.03;;;12.50;76.00
72262;BME280;60173;52.112;8.648;2022-11-15T08:27:57;99971.34;;;12.47;76.54
72262;BME280;60173;52.112;8.648;2022-11-15T08:30:24;99973.09;;;12.52;76.47
72262;BME280;60173;52.112;8.648;2022-11-15T08:32:52;99974.84;;;12.56;76.41
72262;BME280;60173;52.112;8.648;2022-11-15T08:35:19;99973.56;;;12.62;76.59
72262;BME280;60173;52.112;8.648;2022-11-15T08:37:54;99974.00;;;12.82;75.93
72262;BME280;60173;52.112;8.648;2022-11-15T08:40:20;99970.91;;;12.92;75.00
72262;BME280;60173;52.112;8.648;2022-11-15T08:42:47;99965.13;;;13.02;75.04
72262;BME280;60173;52.112;8.648;2022-11-15T08:45:14;99971.63;;;13.19;74.53
72262;BME280;60173;52.112;8.648;2022-11-15T08:47:40;99968.09;;;13.18;74.89
72262;BME280;60173;52.112;8.648;2022-11-15T08:50:07;99974.16;;;13.24;74.68
72262;BME280;60173;52.112;8.648;2022-11-15T08:52:34;99965.38;;;13.27;74.85
72262;BME280;60173;52.112;8.648;2022-11-15T08:55:00;99964.03;;;13.33;74.65
72262;BME280;60173;52.112;8.648;2022-11-15T08:57:28;99963.16;;;13.11;75.07
72262;BME280;60173;52.112;8.648;2022-11-15T08:59:55;99970.09;;;13.00;75.28
72262;BME280;60173;52.112;8.648;2022-11-15T09:02:22;99963.13;;;13.29;74.65
72262;BME280;60173;52.112;8.648;2022-11-15T09:04:48;99961.97;;;13.60;72.30
72262;BME280;60173;52.112;8.648;2022-11-15T09:07:14;99965.25;;;13.74;71.56
72262;BME280;60173;52.112;8.648;2022-11-15T09:09:41;99967.56;;;13.93;71.55
72262;BME280;60173;52.112;8.648;2022-11-15T09:12:08;99967.22;;;14.15;69.95
72262;BME280;60173;52.112;8.648;2022-11-15T09:14:34;99965.69;;;14.27;69.79
72262;BME280;60173;52.112;8.648;2022-11-15T09:17:01;99961.69;;;14.24;68.37
72262;BME280;60173;52.112;8.648;2022-11-15T09:19:27;99969.59;;;14.17;68.79
72262;BME280;60173;52.112;8.648;2022-11-15T09:21:54;99968.88;;;14.08;69.36
72262;BME280;60173;52.112;8.648;2022-11-15T09:24:20;99962.88;;;13.93;69.51
72262;BME280;60173;52.112;8.648;2022-11-15T09:26:49;99962.75;;;13.90;70.30
72262;BME280;60173;52.112;8.648;2022-11-15T09:29:16;99963.34;;;13.95;69.00
72262;BME280;60173;52.112;8.648;2022-11-15T09:31:43;99972.69;;;13.94;69.35
72262;BME280;60173;52.112;8.648;2022-11-15T09:34:09;99967.81;;;14.00;69.59
72262;BME280;60173;52.112;8.648;2022-11-15T09:36:35;99963.91;;;13.89;69.73
72262;BME280;60173;52.112;8.648;2022-11-15T09:39:02;99967.47;;;13.81;69.70
72262;BME280;60173;52.112;8.648;2022-11-15T09:49:18;99967.88;;;13.91;68.46
72262;BME280;60173;52.112;8.648;2022-11-15T09:51:47;99974.47;;;13.90;68.16
72262;BME280;60173;52.112;8.648;2022-11-15T09:57:30;99977.50;;;13.97;66.72
72262;BME280;60173;52.112;8.648;2022-11-15T10:00:50;99969.34;;;13.89;67.07
72262;BME280;60173;52.112;8.648;2022-11-15T10:03:15;99967.50;;;14.01;67.18
72262;BME280;60173;52.112;8.648;2022-11-15T10:05:46;99969.06;;;14.02;67.28
72262;BME280;60173;52.112;8.648;2022-11-15T10:08:18;99961.28;;;14.13;67.16
72262;BME280;60173;52.112;8.648;2022-11-15T10:10:51;99965.22;;;14.04;65.43
72262;BME280;60173;52.112;8.648;2022-11-15T10:13:44;99959.63;;;14.00;66.13
72262;BME280;60173;52.112;8.648;2022-11-15T10:19:06;99948.91;;;14.16;65.59
72262;BME280;60173;52.112;8.648;2022-11-15T10:24:25;99935.28;;;14.28;64.72
72262;BME280;60173;52.112;8.648;2022-11-15T10:26:52;99930.72;;;14.20;65.05
72262;BME280;60173;52.112;8.648;2022-11-15T10:29:22;99925.25;;;14.20;65.14
72262;BME280;60173;52.112;8.648;2022-11-15T10:31:52;99919.53;;;14.13;64.19
72262;BME280;60173;52.112;8.648;2022-11-15T10:34:21;99920.16;;;13.97;64.08
72262;BME280;60173;52.112;8.648;2022-11-15T10:36:56;99915.13;;;13.99;63.47
72262;BME280;60173;52.112;8.648;2022-11-15T10:39:23;99921.28;;;13.96;63.23
72262;BME280;60173;52.112;8.648;2022-11-15T10:41:50;99909.28;;;14.10;63.07
72262;BME280;60173;52.112;8.648;2022-11-15T10:46:45;99898.50;;;13.92;63.24
72262;BME280;60173;52.112;8.648;2022-11-15T10:49:17;99887.16;;;14.02;62.92
72262;BME280;60173;52.112;8.648;2022-11-15T10:51:49;99891.25;;;13.96;62.76
72262;BME280;60173;52.112;8.648;2022-11-15T10:54:36;99887.63;;;14.05;62.52
72262;BME280;60173;52.112;8.648;2022-11-15T10:57:17;99879.97;;;14.19;61.95
72262;BME280;60173;52.112;8.648;2022-11-15T10:59:46;99877.63;;;14.30;60.89
72262;BME280;60173;52.112;8.648;2022-11-15T11:02:40;99877.72;;;14.33;59.29
72262;BME280;60173;52.112;8.648;2022-11-15T11:05:28;99878.44;;;14.42;58.94
72262;BME280;60173;52.112;8.648;2022-11-15T11:10:38;99869.91;;;14.44;58.48
72262;BME280;60173;52.112;8.648;2022-11-15T11:21:50;99861.56;;;14.74;59.36
72262;BME280;60173;52.112;8.648;2022-11-15T11:24:36;99859.63;;;14.86;59.58
72262;BME280;60173;52.112;8.648;2022-11-15T11:43:02;99844.59;;;15.05;59.61
72262;BME280;60173;52.112;8.648;2022-11-15T11:48:14;99827.81;;;15.19;59.23
72262;BME280;60173;52.112;8.648;2022-11-15T11:50:47;99818.38;;;15.16;58.87
72262;BME280;60173;52.112;8.648;2022-11-15T11:53:17;99814.63;;;14.96;59.31
72262;BME280;60173;52.112;8.648;2022-11-15T11:55:52;99806.19;;;15.01;58.92
72262;BME280;60173;52.112;8.648;2022-11-15T11:58:25;99809.97;;;14.97;59.60
72262;BME280;60173;52.112;8.648;2022-11-15T12:01:23;99811.09;;;14.83;60.64
72262;BME280;60173;52.112;8.648;2022-11-15T12:06:36;99802.22;;;14.99;59.04
72262;BME280;60173;52.112;8.648;2022-11-15T12:09:20;99799.03;;;14.97;58.63
72262;BME280;60173;52.112;8.648;2022-11-15T12:12:11;99791.03;;;14.91;59.07
72262;BME280;60173;52.112;8.648;2022-11-15T12:14:50;99792.88;;;14.87;59.58
72262;BME280;60173;52.112;8.648;2022-11-15T12:17:22;99796.41;;;14.88;60.17
72262;BME280;60173;52.112;8.648;2022-11-15T12:19:51;99790.59;;;14.89;59.45
72262;BME280;60173;52.112;8.648;2022-11-15T12:22:32;99785.00;;;14.86;59.25
72262;BME280;60173;52.112;8.648;2022-11-15T12:25:04;99788.22;;;14.76;59.77
72262;BME280;60173;52.112;8.648;2022-11-15T12:28:18;99780.34;;;14.74;59.97
72262;BME280;60173;52.112;8.648;2022-11-15T12:30:24;99771.34;;;14.86;60.15
72262;BME280;60173;52.112;8.648;2022-11-15T12:32:55;99777.41;;;14.79;59.24
72262;BME280;60173;52.112;8.648;2022-11-15T12:35:37;99773.97;;;14.82;59.96
72262;BME280;60173;52.112;8.648;2022-11-15T12:38:09;99769.06;;;14.88;60.02
72262;BME280;60173;52.112;8.648;2022-11-15T12:40:38;99771.00;;;14.87;59.91
72262;BME280;60173;52.112;8.648;2022-11-15T12:45:37;99765.06;;;14.98;59.21
72262;BME280;60173;52.112;8.648;2022-11-15T13:12:08;99736.97;;;14.85;58.67
72262;BME280;60173;52.112;8.648;2022-11-15T13:14:56;99746.63;;;14.82;58.91
72262;BME280;60173;52.112;8.648;2022-11-15T13:17:31;99738.88;;;14.72;58.74
72262;BME280;60173;52.112;8.648;2022-11-15T13:23:23;99727.50;;;14.58;60.37
72262;BME280;60173;52.112;8.648;2022-11-15T13:30:50;99728.66;;;14.81;59.66
72262;BME280;60173;52.112;8.648;2022-11-15T13:33:20;99726.03;;;14.85;59.62
72262;BME280;60173;52.112;8.648;2022-11-15T13:35:51;99724.09;;;14.73;59.40
72262;BME280;60173;52.112;8.648;2022-11-15T13:40:51;99713.63;;;14.38;65.32
72262;BME280;60173;52.112;8.648;2022-11-15T13:48:40;99707.03;;;14.52;65.51
72262;BME280;60173;52.112;8.648;2022-11-15T13:51:37;99703.47;;;14.51;66.19
72262;BME280;60173;52.112;8.648;2022-11-15T13:54:24;99706.69;;;14.53;65.83
72262;BME280;60173;52.112;8.648;2022-11-15T13:56:58;99699.28;;;14.54;66.27
72262;BME280;60173;52.112;8.648;2022-11-15T13:59:32;99699.94;;;14.51;65.99
72262;BME280;60173;52.112;8.648;2022-11-15T14:02:09;99689.69;;;14.23;66.86
72262;BME280;60173;52.112;8.648;2022-11-15T14:04:39;99686.06;;;14.19;67.64
72262;BME280;60173;52.112;8.648;2022-11-15T14:07:17;99687.44;;;14.25;67.25
72262;BME280;60173;52.112;8.648;2022-11-15T14:09:44;99687.44;;;14.25;67.26
72262;BME280;60173;52.112;8.648;2022-11-15T14:14:57;99695.84;;;13.95;67.94
72262;BME280;60173;52.112;8.648;2022-11-15T14:17:35;99697.66;;;14.04;66.53
72262;BME280;60173;52.112;8.648;2022-11-15T14:20:19;99691.50;;;13.94;65.99
72262;BME280;60173;52.112;8.648;2022-11-15T14:22:54;99679.34;;;13.92;66.11
72262;BME280;60173;52.112;8.648;2022-11-15T14:25:28;99682.75;;;13.89;65.85
72262;BME280;60173;52.112;8.648;2022-11-15T14:28:12;99671.00;;;13.88;65.51
72262;BME280;60173;52.112;8.648;2022-11-15T14:30:40;99683.81;;;13.63;66.39
72262;BME280;60173;52.112;8.648;2022-11-15T14:35:52;99674.50;;;13.64;65.56
72262;BME280;60173;52.112;8.648;2022-11-15T14:38:18;99682.78;;;13.55;65.37
72262;BME280;60173;52.112;8.648;2022-11-15T14:40:45;99675.72;;;13.54;65.29
72262;BME280;60173;52.112;8.648;2022-11-15T14:43:11;99685.88;;;13.33;66.38
72262;BME280;60173;52.112;8.648;2022-11-15T14:45:38;99681.75;;;13.27;66.55
72262;BME280;60173;52.112;8.648;2022-11-15T14:48:05;99682.81;;;13.14;66.46
72262;BME280;60173;52.112;8.648;2022-11-15T14:50:32;99675.09;;;13.16;66.06
72262;BME280;60173;52.112;8.648;2022-11-15T14:52:59;99678.59;;;13.16;66.08
72262;BME280;60173;52.112;8.648;2022-11-15T14:57:52;99673.50;;;13.15;66.20
72262;BME280;60173;52.112;8.648;2022-11-15T15:00:19;99662.28;;;12.95;66.88
72262;BME280;60173;52.112;8.648;2022-11-15T15:02:47;99655.28;;;13.06;66.23
72262;BME280;60173;52.112;8.648;2022-11-15T15:05:20;99653.03;;;13.08;66.00
72262;BME280;60173;52.112;8.648;2022-11-15T15:07:47;99650.25;;;12.96;66.34
72262;BME280;60173;52.112;8.648;2022-11-15T15:10:15;99648.13;;;13.02;65.96
72262;BME280;60173;52.112;8.648;2022-11-15T15:13:03;99643.78;;;13.01;66.16
72262;BME280;60173;52.112;8.648;2022-11-15T15:15:35;99637.75;;;12.95;66.28
72262;BME280;60173;52.112;8.648;2022-11-15T15:18:03;99645.06;;;12.82;66.82